sensor_id;sensor_type;location;lat;lon;timestamp;P1;durP1;ratioP1;P2;durP2;ratioP2
25936;SDS011;13733;51.178;4.450;2023-02-28T00:00:26;8.35;;;6.00;;
25936;SDS011;13733;51.178;4.450;2023-02-28T00:02:53;12.20;;;5.80;;
25936;SDS011;13733;51.178;4.450;2023-02-28T00:05:19;10.30;;;5.95;;
25936;SDS011;13733;51.178;4.450;2023-02-28T00:07:47;8.63;;;5.70;;
25936;SDS011;13733;51.178;4.450;2023-02-28T00:10:16;10.70;;;6.15;;
25936;SDS011;13733;51.178;4.450;2023-02-28T00:12:55;9.45;;;5.93;;
25936;SDS011;13733;51.178;4.450;2023-02-28T00:15:24;14.48;;;6.47;;
25936;SDS011;13733;51.178;4.450;2023-02-28T00:17:50;11.50;;;6.32;;
25936;SDS011;13733;51.178;4.450;2023-02-28T00:20:16;10.30;;;6.10;;
25936;SDS011;13733;51.178;4.450;2023-02-28T00:22:45;11.88;;;6.50;;
25936;SDS011;13733;51.178;4.450;2023-02-28T00:25:14;10.40;;;6.15;;
25936;SDS011;13733;51.178;4.450;2023-02-28T00:27:41;10.32;;;6.05;;
25936;SDS011;13733;51.178;4.450;2023-02-28T00:30:09;9.38;;;6.18;;
25936;SDS011;13733;51.178;4.450;2023-02-28T00:32:36;11.93;;;6.65;;
25936;SDS011;13733;51.178;4.450;2023-02-28T00:35:03;11.82;;;6.65;;
25936;SDS011;13733;51.178;4.450;2023-02-28T00:37:29;10.70;;;6.93;;
25936;SDS011;13733;51.178;4.450;2023-02-28T00:39:55;11.35;;;6.50;;
25936;SDS011;13733;51.178;4.450;2023-02-28T00:42:21;12.68;;;7.20;;
25936;SDS011;13733;51.178;4.450;2023-02-28T00:44:47;13.68;;;6.68;;
25936;SDS011;13733;51.178;4.450;2023-02-28T00:47:13;10.32;;;6.45;;
25936;SDS011;13733;51.178;4.450;2023-02-28T00:49:39;11.43;;;6.05;;
25936;SDS011;13733;51.178;4.450;2023-02-28T00:52:08;12.25;;;6.60;;
25936;SDS011;13733;51.178;4.450;2023-02-28T00:54:34;10.90;;;7.30;;
25936;SDS011;13733;51.178;4.450;2023-02-28T00:57:01;10.32;;;7.03;;
25936;SDS011;13733;51.178;4.450;2023-02-28T00:59:26;12.07;;;6.53;;
25936;SDS011;13733;51.178;4.450;2023-02-28T01:01:53;11.57;;;7.20;;
25936;SDS011;13733;51.178;4.450;2023-02-28T01:04:20;12.07;;;6.93;;
25936;SDS011;13733;51.178;4.450;2023-02-28T01:06:46;11.35;;;6.78;;
25936;SDS011;13733;51.178;4.450;2023-02-28T01:09:12;12.45;;;7.03;;
25936;SDS011;13733;51.178;4.450;2023-02-28T01:11:41;11.70;;;6.93;;
25936;SDS011;13733;51.178;4.450;2023-02-28T01:14:11;12.48;;;6.93;;
25936;SDS011;13733;51.178;4.450;2023-02-28T01:16:38;11.15;;;7.35;;
25936;SDS011;13733;51.178;4.450;2023-02-28T01:19:07;10.75;;;7.00;;
25936;SDS011;13733;51.178;4.450;2023-02-28T01:21:33;10.35;;;7.03;;
25936;SDS011;13733;51.178;4.450;2023-02-28T01:24:00;13.57;;;7.10;;
25936;SDS011;13733;51.178;4.450;2023-02-28T01:26:26;13.15;;;7.38;;
25936;SDS011;13733;51.178;4.450;2023-02-28T01:28:51;10.25;;;7.20;;
25936;SDS011;13733;51.178;4.450;2023-02-28T01:31:18;11.30;;;6.93;;
25936;SDS011;13733;51.178;4.450;2023-02-28T01:33:44;11.10;;;6.82;;
25936;SDS011;13733;51.178;4.450;2023-02-28T01:36:12;11.35;;;6.97;;
25936;SDS011;13733;51.178;4.450;2023-02-28T01:38:51;12.35;;;7.32;;
25936;SDS011;13733;51.178;4.450;2023-02-28T01:41:23;11.88;;;7.45;;
25936;SDS011;13733;51.178;4.450;2023-02-28T01:44:02;13.23;;;7.35;;
25936;SDS011;13733;51.178;4.450;2023-02-28T01:46:51;12.60;;;7.32;;
25936;SDS011;13733;51.178;4.450;2023-02-28T01:49:16;13.65;;;6.75;;
25936;SDS011;13733;51.178;4.450;2023-02-28T01:51:52;10.70;;;7.20;;
25936;SDS011;13733;51.178;4.450;2023-02-28T01:54:21;14.43;;;7.43;;
25936;SDS011;13733;51.178;4.450;2023-02-28T01:56:54;12.02;;;7.03;;
25936;SDS011;13733;51.178;4.450;2023-02-28T01:59:35;14.63;;;7.38;;
25936;SDS011;13733;51.178;4.450;2023-02-28T02:02:11;12.68;;;7.35;;
25936;SDS011;13733;51.178;4.450;2023-02-28T02:04:38;12.73;;;7.35;;
25936;SDS011;13733;51.178;4.450;2023-02-28T02:07:10;11.23;;;7.22;;
25936;SDS011;13733;51.178;4.450;2023-02-28T02:09:37;9.93;;;7.18;;
25936;SDS011;13733;51.178;4.450;2023-02-28T02:17:28;13.00;;;7.00;;
25936;SDS011;13733;51.178;4.450;2023-02-28T02:31:11;9.65;;;6.60;;
25936;SDS011;13733;51.178;4.450;2023-02-28T02:39:37;9.85;;;6.68;;
25936;SDS011;13733;51.178;4.450;2023-02-28T02:42:28;11.35;;;6.88;;
25936;SDS011;13733;51.178;4.450;2023-02-28T02:45:19;11.40;;;7.28;;
25936;SDS011;13733;51.178;4.450;2023-02-28T02:48:00;13.05;;;8.02;;
25936;SDS011;13733;51.178;4.450;2023-02-28T02:50:30;11.25;;;7.32;;
25936;SDS011;13733;51.178;4.450;2023-02-28T02:53:00;9.80;;;7.00;;
25936;SDS011;13733;51.178;4.450;2023-02-28T02:55:30;10.00;;;6.68;;
25936;SDS011;13733;51.178;4.450;2023-02-28T02:58:04;8.82;;;6.35;;
25936;SDS011;13733;51.178;4.450;2023-02-28T03:00:34;13.73;;;6.82;;
25936;SDS011;13733;51.178;4.450;2023-02-28T03:03:04;10.95;;;7.05;;
25936;SDS011;13733;51.178;4.450;2023-02-28T03:05:48;11.70;;;7.38;;
25936;SDS011;13733;51.178;4.450;2023-02-28T03:08:15;12.75;;;7.03;;
25936;SDS011;13733;51.178;4.450;2023-02-28T03:10:42;9.43;;;7.10;;
25936;SDS011;13733;51.178;4.450;2023-02-28T03:18:29;10.98;;;7.13;;
25936;SDS011;13733;51.178;4.450;2023-02-28T03:21:11;10.25;;;6.55;;
25936;SDS011;13733;51.178;4.450;2023-02-28T03:24:08;13.05;;;7.35;;
25936;SDS011;13733;51.178;4.450;2023-02-28T03:26:39;14.55;;;7.93;;
25936;SDS011;13733;51.178;4.450;2023-02-28T03:29:21;13.18;;;6.97;;
25936;SDS011;13733;51.178;4.450;2023-02-28T03:31:55;10.10;;;7.00;;
25936;SDS011;13733;51.178;4.450;2023-02-28T03:36:55;11.40;;;6.72;;
25936;SDS011;13733;51.178;4.450;2023-02-28T03:39:27;11.68;;;7.13;;
25936;SDS011;13733;51.178;4.450;2023-02-28T03:42:00;9.30;;;6.55;;
25936;SDS011;13733;51.178;4.450;2023-02-28T03:47:08;11.23;;;7.28;;
25936;SDS011;13733;51.178;4.450;2023-02-28T03:49:43;14.73;;;7.18;;
25936;SDS011;13733;51.178;4.450;2023-02-28T03:52:14;9.95;;;7.05;;
25936;SDS011;13733;51.178;4.450;2023-02-28T03:54:43;10.57;;;6.95;;
25936;SDS011;13733;51.178;4.450;2023-02-28T04:00:48;10.98;;;7.10;;
25936;SDS011;13733;51.178;4.450;2023-02-28T04:02:59;14.50;;;7.30;;
25936;SDS011;13733;51.178;4.450;2023-02-28T04:05:25;11.23;;;6.78;;
25936;SDS011;13733;51.178;4.450;2023-02-28T04:07:53;11.70;;;7.65;;
25936;SDS011;13733;51.178;4.450;2023-02-28T04:10:19;12.10;;;7.32;;
25936;SDS011;13733;51.178;4.450;2023-02-28T04:12:45;9.88;;;7.25;;
25936;SDS011;13733;51.178;4.450;2023-02-28T04:15:10;12.25;;;7.18;;
25936;SDS011;13733;51.178;4.450;2023-02-28T04:17:36;13.07;;;7.40;;
25936;SDS011;13733;51.178;4.450;2023-02-28T04:20:03;13.85;;;7.13;;
25936;SDS011;13733;51.178;4.450;2023-02-28T04:22:34;11.68;;;6.70;;
25936;SDS011;13733;51.178;4.450;2023-02-28T04:25:00;11.90;;;6.85;;
25936;SDS011;13733;51.178;4.450;2023-02-28T04:27:25;9.70;;;7.03;;
25936;SDS011;13733;51.178;4.450;2023-02-28T04:29:51;9.50;;;6.60;;
25936;SDS011;13733;51.178;4.450;2023-02-28T04:32:16;11.98;;;6.63;;
25936;SDS011;13733;51.178;4.450;2023-02-28T04:34:42;12.35;;;6.85;;
25936;SDS011;13733;51.178;4.450;2023-02-28T04:37:08;10.75;;;6.70;;
25936;SDS011;13733;51.178;4.450;2023-02-28T04:39:35;12.82;;;7.63;;
25936;SDS011;13733;51.178;4.450;2023-02-28T04:42:01;10.23;;;6.82;;
25936;SDS011;13733;51.178;4.450;2023-02-28T04:44:28;9.93;;;6.38;;
25936;SDS011;13733;51.178;4.450;2023-02-28T04:46:53;12.55;;;6.90;;
25936;SDS011;13733;51.178;4.450;2023-02-28T04:49:19;9.60;;;6.85;;
25936;SDS011;13733;51.178;4.450;2023-02-28T04:51:45;10.65;;;7.22;;
25936;SDS011;13733;51.178;4.450;2023-02-28T04:54:10;12.48;;;7.30;;
25936;SDS011;13733;51.178;4.450;2023-02-28T04:56:36;10.23;;;6.32;;
25936;SDS011;13733;51.178;4.450;2023-02-28T04:59:02;11.55;;;6.80;;
25936;SDS011;13733;51.178;4.450;2023-02-28T05:01:30;12.27;;;6.82;;
25936;SDS011;13733;51.178;4.450;2023-02-28T05:03:58;10.85;;;6.63;;
25936;SDS011;13733;51.178;4.450;2023-02-28T05:06:26;11.85;;;6.85;;
25936;SDS011;13733;51.178;4.450;2023-02-28T05:08:53;10.70;;;6.32;;
25936;SDS011;13733;51.178;4.450;2023-02-28T05:11:20;12.02;;;6.40;;
25936;SDS011;13733;51.178;4.450;2023-02-28T05:13:54;12.50;;;6.65;;
25936;SDS011;13733;51.178;4.450;2023-02-28T05:16:20;12.30;;;5.82;;
25936;SDS011;13733;51.178;4.450;2023-02-28T05:18:46;12.18;;;6.85;;
25936;SDS011;13733;51.178;4.450;2023-02-28T05:21:23;8.63;;;6.78;;
25936;SDS011;13733;51.178;4.450;2023-02-28T05:23:52;13.00;;;6.53;;
25936;SDS011;13733;51.178;4.450;2023-02-28T05:26:19;11.60;;;6.63;;
25936;SDS011;13733;51.178;4.450;2023-02-28T05:28:45;11.45;;;6.82;;
25936;SDS011;13733;51.178;4.450;2023-02-28T05:31:10;10.85;;;6.65;;
25936;SDS011;13733;51.178;4.450;2023-02-28T05:33:37;11.73;;;6.43;;
25936;SDS011;13733;51.178;4.450;2023-02-28T05:36:03;11.20;;;6.65;;
25936;SDS011;13733;51.178;4.450;2023-02-28T05:38:29;11.25;;;6.90;;
25936;SDS011;13733;51.178;4.450;2023-02-28T05:40:55;14.52;;;7.32;;
25936;SDS011;13733;51.178;4.450;2023-02-28T05:43:22;10.00;;;6.30;;
25936;SDS011;13733;51.178;4.450;2023-02-28T05:45:48;13.00;;;6.70;;
25936;SDS011;13733;51.178;4.450;2023-02-28T05:48:14;13.07;;;6.95;;
25936;SDS011;13733;51.178;4.450;2023-02-28T05:50:39;7.65;;;5.72;;
25936;SDS011;13733;51.178;4.450;2023-02-28T05:53:07;14.27;;;6.35;;
25936;SDS011;13733;51.178;4.450;2023-02-28T05:55:32;8.48;;;6.30;;
25936;SDS011;13733;51.178;4.450;2023-02-28T05:58:00;9.10;;;5.90;;
25936;SDS011;13733;51.178;4.450;2023-02-28T06:00:27;8.85;;;6.05;;
25936;SDS011;13733;51.178;4.450;2023-02-28T06:02:53;9.88;;;5.65;;
25936;SDS011;13733;51.178;4.450;2023-02-28T06:05:21;8.90;;;6.05;;
25936;SDS011;13733;51.178;4.450;2023-02-28T06:07:47;10.68;;;5.90;;
25936;SDS011;13733;51.178;4.450;2023-02-28T06:10:14;9.77;;;6.32;;
25936;SDS011;13733;51.178;4.450;2023-02-28T06:12:40;9.13;;;5.85;;
25936;SDS011;13733;51.178;4.450;2023-02-28T06:15:12;8.63;;;6.00;;
25936;SDS011;13733;51.178;4.450;2023-02-28T06:17:40;9.93;;;6.13;;
25936;SDS011;13733;51.178;4.450;2023-02-28T06:20:07;14.45;;;6.60;;
25936;SDS011;13733;51.178;4.450;2023-02-28T06:22:34;11.15;;;5.95;;
25936;SDS011;13733;51.178;4.450;2023-02-28T06:25:01;10.75;;;6.10;;
25936;SDS011;13733;51.178;4.450;2023-02-28T06:27:27;13.40;;;6.20;;
25936;SDS011;13733;51.178;4.450;2023-02-28T06:29:53;12.68;;;6.20;;
25936;SDS011;13733;51.178;4.450;2023-02-28T06:32:21;11.65;;;6.18;;
25936;SDS011;13733;51.178;4.450;2023-02-28T06:34:47;8.88;;;6.47;;
25936;SDS011;13733;51.178;4.450;2023-02-28T06:37:13;10.38;;;6.18;;
25936;SDS011;13733;51.178;4.450;2023-02-28T06:39:38;11.88;;;6.40;;
25936;SDS011;13733;51.178;4.450;2023-02-28T06:42:04;13.77;;;6.55;;
25936;SDS011;13733;51.178;4.450;2023-02-28T06:44:30;11.43;;;5.88;;
25936;SDS011;13733;51.178;4.450;2023-02-28T06:47:04;10.68;;;6.47;;
25936;SDS011;13733;51.178;4.450;2023-02-28T06:51:57;14.68;;;6.13;;
25936;SDS011;13733;51.178;4.450;2023-02-28T06:54:23;11.20;;;6.15;;
25936;SDS011;13733;51.178;4.450;2023-02-28T06:56:49;14.70;;;6.57;;
25936;SDS011;13733;51.178;4.450;2023-02-28T06:59:15;10.40;;;6.40;;
25936;SDS011;13733;51.178;4.450;2023-02-28T07:01:43;8.18;;;5.82;;
25936;SDS011;13733;51.178;4.450;2023-02-28T07:04:08;9.90;;;6.15;;
25936;SDS011;13733;51.178;4.450;2023-02-28T07:06:34;13.68;;;6.65;;
25936;SDS011;13733;51.178;4.450;2023-02-28T07:09:00;11.48;;;6.40;;
25936;SDS011;13733;51.178;4.450;2023-02-28T07:11:26;15.45;;;6.43;;
25936;SDS011;13733;51.178;4.450;2023-02-28T07:13:56;8.50;;;6.00;;
25936;SDS011;13733;51.178;4.450;2023-02-28T07:16:23;8.52;;;5.93;;
25936;SDS011;13733;51.178;4.450;2023-02-28T07:18:51;8.73;;;6.00;;
25936;SDS011;13733;51.178;4.450;2023-02-28T07:21:18;8.95;;;5.75;;
25936;SDS011;13733;51.178;4.450;2023-02-28T07:23:43;12.02;;;6.00;;
25936;SDS011;13733;51.178;4.450;2023-02-28T07:26:13;10.18;;;5.97;;
25936;SDS011;13733;51.178;4.450;2023-02-28T07:28:42;9.80;;;6.18;;
25936;SDS011;13733;51.178;4.450;2023-02-28T07:31:08;9.65;;;5.82;;
25936;SDS011;13733;51.178;4.450;2023-02-28T07:33:36;11.35;;;5.78;;
25936;SDS011;13733;51.178;4.450;2023-02-28T07:36:35;11.65;;;5.60;;
25936;SDS011;13733;51.178;4.450;2023-02-28T07:38:54;8.65;;;5.82;;
25936;SDS011;13733;51.178;4.450;2023-02-28T07:41:20;11.32;;;6.47;;
25936;SDS011;13733;51.178;4.450;2023-02-28T07:43:48;9.60;;;5.72;;
25936;SDS011;13733;51.178;4.450;2023-02-28T07:46:14;9.43;;;6.07;;
25936;SDS011;13733;51.178;4.450;2023-02-28T07:48:41;9.15;;;5.80;;
25936;SDS011;13733;51.178;4.450;2023-02-28T07:51:08;12.95;;;5.22;;
25936;SDS011;13733;51.178;4.450;2023-02-28T07:53:34;8.65;;;5.65;;
25936;SDS011;13733;51.178;4.450;2023-02-28T07:56:01;11.40;;;5.32;;
25936;SDS011;13733;51.178;4.450;2023-02-28T07:58:29;9.43;;;5.57;;
25936;SDS011;13733;51.178;4.450;2023-02-28T08:00:55;8.10;;;5.10;;
25936;SDS011;13733;51.178;4.450;2023-02-28T08:03:22;9.45;;;5.43;;
25936;SDS011;13733;51.178;4.450;2023-02-28T08:05:49;7.15;;;4.97;;
25936;SDS011;13733;51.178;4.450;2023-02-28T08:08:15;9.98;;;5.30;;
25936;SDS011;13733;51.178;4.450;2023-02-28T08:10:41;8.20;;;4.70;;
25936;SDS011;13733;51.178;4.450;2023-02-28T08:13:07;8.82;;;5.07;;
25936;SDS011;13733;51.178;4.450;2023-02-28T08:15:33;12.45;;;4.55;;
25936;SDS011;13733;51.178;4.450;2023-02-28T08:17:58;8.82;;;4.78;;
25936;SDS011;13733;51.178;4.450;2023-02-28T08:20:26;9.27;;;4.78;;
25936;SDS011;13733;51.178;4.450;2023-02-28T08:22:52;8.93;;;4.38;;
25936;SDS011;13733;51.178;4.450;2023-02-28T08:25:17;7.97;;;4.47;;
25936;SDS011;13733;51.178;4.450;2023-02-28T08:27:43;6.53;;;4.50;;
25936;SDS011;13733;51.178;4.450;2023-02-28T08:30:10;6.30;;;4.50;;
25936;SDS011;13733;51.178;4.450;2023-02-28T08:32:37;9.13;;;4.57;;
25936;SDS011;13733;51.178;4.450;2023-02-28T08:35:03;8.10;;;4.40;;
25936;SDS011;13733;51.178;4.450;2023-02-28T08:37:29;7.63;;;4.68;;
25936;SDS011;13733;51.178;4.450;2023-02-28T08:39:56;6.40;;;4.22;;
25936;SDS011;13733;51.178;4.450;2023-02-28T08:42:23;10.02;;;4.07;;
25936;SDS011;13733;51.178;4.450;2023-02-28T08:44:49;10.18;;;4.60;;
25936;SDS011;13733;51.178;4.450;2023-02-28T08:47:14;6.22;;;4.53;;
25936;SDS011;13733;51.178;4.450;2023-02-28T08:49:40;11.35;;;4.40;;
25936;SDS011;13733;51.178;4.450;2023-02-28T08:52:06;6.20;;;4.00;;
25936;SDS011;13733;51.178;4.450;2023-02-28T08:54:32;8.48;;;4.30;;
25936;SDS011;13733;51.178;4.450;2023-02-28T08:56:59;6.53;;;3.90;;
25936;SDS011;13733;51.178;4.450;2023-02-28T08:59:25;6.85;;;3.55;;
25936;SDS011;13733;51.178;4.450;2023-02-28T09:01:50;10.68;;;3.90;;
25936;SDS011;13733;51.178;4.450;2023-02-28T09:04:16;8.20;;;3.50;;
25936;SDS011;13733;51.178;4.450;2023-02-28T09:06:41;8.25;;;3.22;;
25936;SDS011;13733;51.178;4.450;2023-02-28T09:09:07;6.65;;;3.22;;
25936;SDS011;13733;51.178;4.450;2023-02-28T09:11:34;6.93;;;3.95;;
25936;SDS011;13733;51.178;4.450;2023-02-28T09:14:00;7.65;;;3.25;;
25936;SDS011;13733;51.178;4.450;2023-02-28T09:16:28;5.72;;;3.45;;
25936;SDS011;13733;51.178;4.450;2023-02-28T09:18:54;9.30;;;3.78;;
25936;SDS011;13733;51.178;4.450;2023-02-28T09:21:20;5.72;;;3.22;;
25936;SDS011;13733;51.178;4.450;2023-02-28T09:23:47;6.35;;;3.40;;
25936;SDS011;13733;51.178;4.450;2023-02-28T09:26:14;5.57;;;3.60;;
25936;SDS011;13733;51.178;4.450;2023-02-28T09:28:40;7.18;;;3.30;;
25936;SDS011;13733;51.178;4.450;2023-02-28T09:31:06;9.82;;;3.50;;
25936;SDS011;13733;51.178;4.450;2023-02-28T09:33:36;4.13;;;2.95;;
25936;SDS011;13733;51.178;4.450;2023-02-28T09:36:02;6.72;;;3.42;;
25936;SDS011;13733;51.178;4.450;2023-02-28T09:38:29;4.32;;;3.30;;
25936;SDS011;13733;51.178;4.450;2023-02-28T09:40:58;5.95;;;3.28;;
25936;SDS011;13733;51.178;4.450;2023-02-28T09:43:27;7.87;;;3.00;;
25936;SDS011;13733;51.178;4.450;2023-02-28T09:46:02;3.28;;;2.50;;
25936;SDS011;13733;51.178;4.450;2023-02-28T09:48:39;3.42;;;2.40;;
25936;SDS011;13733;51.178;4.450;2023-02-28T09:54:02;2.95;;;2.22;;
25936;SDS011;13733;51.178;4.450;2023-02-28T09:56:33;6.53;;;2.78;;
25936;SDS011;13733;51.178;4.450;2023-02-28T09:59:05;4.70;;;2.58;;
25936;SDS011;13733;51.178;4.450;2023-02-28T10:07:37;4.20;;;1.77;;
25936;SDS011;13733;51.178;4.450;2023-02-28T10:10:56;4.75;;;1.88;;
25936;SDS011;13733;51.178;4.450;2023-02-28T10:16:59;5.25;;;2.13;;
25936;SDS011;13733;51.178;4.450;2023-02-28T10:21:43;7.40;;;1.90;;
25936;SDS011;13733;51.178;4.450;2023-02-28T10:27:14;3.33;;;1.90;;
25936;SDS011;13733;51.178;4.450;2023-02-28T10:29:51;2.47;;;1.80;;
25936;SDS011;13733;51.178;4.450;2023-02-28T10:32:20;3.20;;;1.88;;
25936;SDS011;13733;51.178;4.450;2023-02-28T10:35:01;2.47;;;1.67;;
25936;SDS011;13733;51.178;4.450;2023-02-28T10:37:32;6.35;;;2.47;;
25936;SDS011;13733;51.178;4.450;2023-02-28T10:40:03;6.78;;;1.90;;
25936;SDS011;13733;51.178;4.450;2023-02-28T10:42:31;2.67;;;1.80;;
25936;SDS011;13733;51.178;4.450;2023-02-28T10:47:48;2.30;;;1.70;;
25936;SDS011;13733;51.178;4.450;2023-02-28T10:50:26;4.10;;;2.00;;
25936;SDS011;13733;51.178;4.450;2023-02-28T10:52:52;3.78;;;1.95;;
25936;SDS011;13733;51.178;4.450;2023-02-28T10:55:23;2.53;;;1.75;;
25936;SDS011;13733;51.178;4.450;2023-02-28T10:57:50;6.57;;;1.90;;
25936;SDS011;13733;51.178;4.450;2023-02-28T11:00:21;3.70;;;1.60;;
25936;SDS011;13733;51.178;4.450;2023-02-28T11:02:50;3.45;;;2.00;;
25936;SDS011;13733;51.178;4.450;2023-02-28T11:05:33;2.40;;;1.80;;
25936;SDS011;13733;51.178;4.450;2023-02-28T11:08:14;2.20;;;1.60;;
25936;SDS011;13733;51.178;4.450;2023-02-28T11:10:48;4.45;;;1.70;;
25936;SDS011;13733;51.178;4.450;2023-02-28T11:13:21;3.03;;;1.77;;
25936;SDS011;13733;51.178;4.450;2023-02-28T11:15:53;5.43;;;1.70;;
25936;SDS011;13733;51.178;4.450;2023-02-28T11:20:52;2.83;;;1.90;;
25936;SDS011;13733;51.178;4.450;2023-02-28T11:23:21;3.58;;;1.95;;
25936;SDS011;13733;51.178;4.450;2023-02-28T11:25:52;3.30;;;1.90;;
25936;SDS011;13733;51.178;4.450;2023-02-28T11:28:28;1.95;;;1.77;;
25936;SDS011;13733;51.178;4.450;2023-02-28T11:33:43;3.60;;;1.98;;
25936;SDS011;13733;51.178;4.450;2023-02-28T11:36:12;2.58;;;1.60;;
25936;SDS011;13733;51.178;4.450;2023-02-28T11:38:43;3.47;;;2.13;;
25936;SDS011;13733;51.178;4.450;2023-02-28T11:44:20;2.47;;;1.80;;
25936;SDS011;13733;51.178;4.450;2023-02-28T11:46:58;2.10;;;1.63;;
25936;SDS011;13733;51.178;4.450;2023-02-28T11:52:35;3.20;;;1.90;;
25936;SDS011;13733;51.178;4.450;2023-02-28T11:55:21;3.58;;;2.03;;
25936;SDS011;13733;51.178;4.450;2023-02-28T11:57:55;5.93;;;1.75;;
25936;SDS011;13733;51.178;4.450;2023-02-28T12:05:24;4.00;;;1.90;;
25936;SDS011;13733;51.178;4.450;2023-02-28T12:10:44;3.08;;;1.90;;
25936;SDS011;13733;51.178;4.450;2023-02-28T12:13:21;2.17;;;1.75;;
25936;SDS011;13733;51.178;4.450;2023-02-28T12:22:15;2.83;;;1.70;;
25936;SDS011;13733;51.178;4.450;2023-02-28T12:27:09;3.92;;;1.80;;
25936;SDS011;13733;51.178;4.450;2023-02-28T12:35:21;5.15;;;2.25;;
25936;SDS011;13733;51.178;4.450;2023-02-28T12:37:56;2.77;;;2.10;;
25936;SDS011;13733;51.178;4.450;2023-02-28T12:40:32;3.85;;;2.25;;
25936;SDS011;13733;51.178;4.450;2023-02-28T12:43:07;5.45;;;2.38;;
25936;SDS011;13733;51.178;4.450;2023-02-28T12:45:58;4.10;;;1.98;;
25936;SDS011;13733;51.178;4.450;2023-02-28T12:48:52;2.72;;;1.92;;
25936;SDS011;13733;51.178;4.450;2023-02-28T12:51:24;2.70;;;2.00;;
25936;SDS011;13733;51.178;4.450;2023-02-28T12:53:54;2.60;;;2.05;;
25936;SDS011;13733;51.178;4.450;2023-02-28T13:02:06;4.07;;;2.05;;
25936;SDS011;13733;51.178;4.450;2023-02-28T13:08:16;6.00;;;2.30;;
25936;SDS011;13733;51.178;4.450;2023-02-28T13:13:57;2.92;;;2.10;;
25936;SDS011;13733;51.178;4.450;2023-02-28T13:16:57;4.20;;;2.10;;
25936;SDS011;13733;51.178;4.450;2023-02-28T13:20:00;3.50;;;2.20;;
25936;SDS011;13733;51.178;4.450;2023-02-28T13:24:55;4.18;;;2.17;;
25936;SDS011;13733;51.178;4.450;2023-02-28T13:36:40;10.48;;;2.50;;
25936;SDS011;13733;51.178;4.450;2023-02-28T13:38:44;4.68;;;2.30;;
25936;SDS011;13733;51.178;4.450;2023-02-28T14:03:23;10.73;;;2.38;;
25936;SDS011;13733;51.178;4.450;2023-02-28T14:06:37;4.07;;;2.72;;
25936;SDS011;13733;51.178;4.450;2023-02-28T14:11:50;2.50;;;2.15;;
25936;SDS011;13733;51.178;4.450;2023-02-28T14:17:05;2.70;;;2.17;;
25936;SDS011;13733;51.178;4.450;2023-02-28T14:19:35;3.97;;;2.20;;
25936;SDS011;13733;51.178;4.450;2023-02-28T14:30:49;4.65;;;2.55;;
25936;SDS011;13733;51.178;4.450;2023-02-28T14:38:24;5.85;;;2.63;;
25936;SDS011;13733;51.178;4.450;2023-02-28T14:40:54;5.93;;;2.40;;
25936;SDS011;13733;51.178;4.450;2023-02-28T14:43:27;7.82;;;2.80;;
25936;SDS011;13733;51.178;4.450;2023-02-28T14:48:22;5.10;;;2.60;;
25936;SDS011;13733;51.178;4.450;2023-02-28T14:50:51;4.35;;;2.75;;
25936;SDS011;13733;51.178;4.450;2023-02-28T14:53:22;2.90;;;2.47;;
25936;SDS011;13733;51.178;4.450;2023-02-28T14:55:53;3.15;;;2.47;;
25936;SDS011;13733;51.178;4.450;2023-02-28T14:58:21;4.78;;;2.90;;
25936;SDS011;13733;51.178;4.450;2023-02-28T15:00:48;4.22;;;2.33;;
25936;SDS011;13733;51.178;4.450;2023-02-28T15:03:34;7.40;;;2.42;;
25936;SDS011;13733;51.178;4.450;2023-02-28T15:06:03;3.78;;;2.75;;
25936;SDS011;13733;51.178;4.450;2023-02-28T15:11:18;5.43;;;2.60;;
25936;SDS011;13733;51.178;4.450;2023-02-28T15:13:48;4.55;;;2.53;;
25936;SDS011;13733;51.178;4.450;2023-02-28T15:18:59;4.88;;;2.83;;
25936;SDS011;13733;51.178;4.450;2023-02-28T15:21:29;4.15;;;2.40;;
25936;SDS011;13733;51.178;4.450;2023-02-28T15:24:04;3.30;;;2.30;;
25936;SDS011;13733;51.178;4.450;2023-02-28T15:26:34;4.00;;;2.80;;
25936;SDS011;13733;51.178;4.450;2023-02-28T15:29:07;3.67;;;2.65;;
25936;SDS011;13733;51.178;4.450;2023-02-28T15:31:41;4.63;;;2.40;;
25936;SDS011;13733;51.178;4.450;2023-02-28T15:34:24;4.05;;;2.58;;
25936;SDS011;13733;51.178;4.450;2023-02-28T15:36:57;5.28;;;2.45;;
25936;SDS011;13733;51.178;4.450;2023-02-28T15:39:25;4.93;;;2.70;;
25936;SDS011;13733;51.178;4.450;2023-02-28T15:41:52;6.00;;;2.53;;
25936;SDS011;13733;51.178;4.450;2023-02-28T15:44:44;3.55;;;2.40;;
25936;SDS011;13733;51.178;4.450;2023-02-28T15:47:17;4.07;;;2.25;;
25936;SDS011;13733;51.178;4.450;2023-02-28T15:52:21;4.97;;;2.75;;
25936;SDS011;13733;51.178;4.450;2023-02-28T15:57:43;3.53;;;2.30;;
25936;SDS011;13733;51.178;4.450;2023-02-28T16:00:12;5.53;;;2.53;;
25936;SDS011;13733;51.178;4.450;2023-02-28T16:02:40;3.20;;;2.28;;
25936;SDS011;13733;51.178;4.450;2023-02-28T16:07:35;3.55;;;2.20;;
25936;SDS011;13733;51.178;4.450;2023-02-28T16:10:08;6.43;;;2.28;;
25936;SDS011;13733;51.178;4.450;2023-02-28T16:12:37;2.60;;;2.05;;
25936;SDS011;13733;51.178;4.450;2023-02-28T16:15:08;5.13;;;3.20;;
25936;SDS011;13733;51.178;4.450;2023-02-28T16:17:42;3.25;;;2.60;;
25936;SDS011;13733;51.178;4.450;2023-02-28T16:20:13;3.00;;;2.40;;
25936;SDS011;13733;51.178;4.450;2023-02-28T16:22:41;4.43;;;2.80;;
25936;SDS011;13733;51.178;4.450;2023-02-28T16:25:10;3.03;;;2.50;;
25936;SDS011;13733;51.178;4.450;2023-02-28T16:27:40;4.45;;;2.90;;
25936;SDS011;13733;51.178;4.450;2023-02-28T16:30:09;7.75;;;4.28;;
25936;SDS011;13733;51.178;4.450;2023-02-28T16:32:45;5.75;;;2.70;;
25936;SDS011;13733;51.178;4.450;2023-02-28T16:35:11;3.95;;;2.83;;
25936;SDS011;13733;51.178;4.450;2023-02-28T16:37:39;5.53;;;2.60;;
25936;SDS011;13733;51.178;4.450;2023-02-28T16:40:05;4.22;;;2.45;;
25936;SDS011;13733;51.178;4.450;2023-02-28T16:42:35;4.90;;;2.80;;
25936;SDS011;13733;51.178;4.450;2023-02-28T16:45:04;5.05;;;2.67;;
25936;SDS011;13733;51.178;4.450;2023-02-28T16:47:30;4.10;;;2.70;;
25936;SDS011;13733;51.178;4.450;2023-02-28T16:49:57;4.60;;;2.70;;
25936;SDS011;13733;51.178;4.450;2023-02-28T16:52:23;5.35;;;2.75;;
25936;SDS011;13733;51.178;4.450;2023-02-28T16:54:49;5.40;;;2.53;;
25936;SDS011;13733;51.178;4.450;2023-02-28T16:57:20;5.45;;;2.90;;
25936;SDS011;13733;51.178;4.450;2023-02-28T16:59:48;6.20;;;3.03;;
25936;SDS011;13733;51.178;4.450;2023-02-28T17:02:17;5.47;;;4.03;;
25936;SDS011;13733;51.178;4.450;2023-02-28T17:04:47;5.85;;;3.40;;
25936;SDS011;13733;51.178;4.450;2023-02-28T17:07:14;7.35;;;3.53;;
25936;SDS011;13733;51.178;4.450;2023-02-28T17:09:42;5.32;;;3.33;;
25936;SDS011;13733;51.178;4.450;2023-02-28T17:12:09;5.30;;;3.72;;
25936;SDS011;13733;51.178;4.450;2023-02-28T17:14:36;6.80;;;3.42;;
25936;SDS011;13733;51.178;4.450;2023-02-28T17:17:03;5.20;;;3.70;;
25936;SDS011;13733;51.178;4.450;2023-02-28T17:19:32;4.93;;;3.38;;
25936;SDS011;13733;51.178;4.450;2023-02-28T17:22:02;3.88;;;2.78;;
25936;SDS011;13733;51.178;4.450;2023-02-28T17:24:28;8.18;;;3.40;;
25936;SDS011;13733;51.178;4.450;2023-02-28T17:26:54;4.32;;;3.13;;
25936;SDS011;13733;51.178;4.450;2023-02-28T17:29:20;6.00;;;3.30;;
25936;SDS011;13733;51.178;4.450;2023-02-28T17:31:46;8.57;;;3.17;;
25936;SDS011;13733;51.178;4.450;2023-02-28T17:34:12;6.35;;;3.60;;
25936;SDS011;13733;51.178;4.450;2023-02-28T17:39:10;5.43;;;3.35;;
25936;SDS011;13733;51.178;4.450;2023-02-28T17:41:39;7.28;;;3.58;;
25936;SDS011;13733;51.178;4.450;2023-02-28T17:44:08;8.10;;;4.30;;
25936;SDS011;13733;51.178;4.450;2023-02-28T17:46:34;8.55;;;4.22;;
25936;SDS011;13733;51.178;4.450;2023-02-28T17:49:00;6.85;;;4.20;;
25936;SDS011;13733;51.178;4.450;2023-02-28T17:51:26;9.93;;;4.60;;
25936;SDS011;13733;51.178;4.450;2023-02-28T17:53:53;8.25;;;4.22;;